Time;durP1;ratioP1;P1;durP2;ratioP2;P2;SDS_P1;SDS_P2;PMS_P1;PMS_P2;Temp;Humidity;BMP_temperature;BMP_pressure;BME280_temperature;BME280_humidity;BME280_pressure;Samples;Min_cycle;Max_cycle;Signal;HPM_P1;HPM_P2
2023/12/11 00:00:31;;;;;;;1.20;0.40;;;7.80;99.90;;;7.08;100.00;96273.72;5019300;28;20529;-37
2023/12/11 00:02:57;;;;;;;2.60;0.50;;;7.70;99.90;;;7.03;100.00;96276.56;5003450;28;20369;-37
2023/12/11 00:05:22;;;;;;;1.13;0.50;;;7.70;99.90;;;7.18;100.00;96280.31;5015999;28;20088;-37
2023/12/11 00:07:48;;;;;;;1.20;0.40;;;7.80;99.90;;;7.25;100.00;96279.13;5008017;28;20402;-38
2023/12/11 00:10:14;;;;;;;0.65;0.30;;;7.90;99.90;;;7.30;100.00;96289.41;5001813;28;20033;-38
2023/12/11 00:12:40;;;;;;;0.80;0.40;;;7.90;99.90;;;7.22;100.00;96276.63;5012743;28;20410;-37
2023/12/11 00:15:07;;;;;;;1.25;0.30;;;7.90;99.90;;;7.20;100.00;96272.38;4996173;28;20033;-38
2023/12/11 00:17:33;;;;;;;0.85;0.45;;;7.90;99.90;;;7.19;100.00;96281.16;5008619;28;20030;-38
2023/12/11 00:19:59;;;;;;;1.50;0.30;;;7.80;99.90;;;7.15;100.00;96264.69;4993466;28;20041;-38
2023/12/11 00:22:24;;;;;;;1.13;0.50;;;7.80;99.90;;;7.00;100.00;96254.81;5010873;28;20033;-38
2023/12/11 00:24:50;;;;;;;1.75;0.50;;;7.70;99.90;;;6.99;100.00;96258.38;5007983;28;20103;-38
2023/12/11 00:27:16;;;;;;;0.30;0.30;;;7.60;99.90;;;6.91;100.00;96265.69;5010072;28;20033;-38
2023/12/11 00:29:42;;;;;;;1.38;0.40;;;7.60;99.90;;;6.90;100.00;96270.09;5008576;28;20413;-38
2023/12/11 00:32:08;;;;;;;3.53;0.35;;;7.60;99.90;;;6.98;100.00;96270.63;5010257;28;20053;-38
2023/12/11 00:34:33;;;;;;;2.05;0.40;;;7.60;99.90;;;7.08;100.00;96271.94;5010460;28;20120;-40
2023/12/11 00:37:00;;;;;;;0.93;0.43;;;7.70;99.90;;;7.19;100.00;96278.53;5009774;28;20037;-39
2023/12/11 00:39:26;;;;;;;3.13;0.45;;;7.80;99.90;;;7.28;100.00;96286.00;5009877;28;20653;-39
2023/12/11 00:41:52;;;;;;;1.73;0.40;;;7.90;99.90;;;7.31;100.00;96271.94;5011477;28;20058;-40
2023/12/11 00:44:18;;;;;;;1.98;0.50;;;8.00;99.90;;;7.44;100.00;96286.22;4997719;28;20033;-39
2023/12/11 00:46:43;;;;;;;1.33;0.40;;;8.10;99.90;;;7.51;100.00;96281.56;5051497;22;20556;-35
2023/12/11 00:49:09;;;;;;;1.27;0.30;;;8.10;99.90;;;7.55;100.00;96294.47;5047273;28;20032;-35
2023/12/11 00:51:35;;;;;;;0.57;0.20;;;8.20;99.90;;;7.60;100.00;96303.00;5035557;28;20032;-35
2023/12/11 00:54:00;;;;;;;1.00;0.40;;;8.20;99.90;;;7.57;100.00;96302.28;5034296;28;20123;-36
2023/12/11 00:56:26;;;;;;;1.58;0.40;;;8.30;99.90;;;7.68;100.00;96312.31;5034873;28;20056;-36
2023/12/11 00:58:52;;;;;;;1.95;0.30;;;8.30;99.90;;;7.74;100.00;96312.94;5032351;28;20295;-36
2023/12/11 01:01:18;;;;;;;2.05;0.40;;;8.30;99.90;;;7.76;100.00;96303.22;5033772;28;20037;-34
2023/12/11 01:03:43;;;;;;;0.73;0.30;;;8.40;99.90;;;7.81;100.00;96311.75;5028447;28;20217;-34
2023/12/11 01:06:09;;;;;;;1.60;0.40;;;8.40;99.90;;;7.81;100.00;96309.13;5031520;28;20037;-35
2023/12/11 01:08:40;;;;;;;1.30;0.20;;;8.50;99.90;;;7.84;100.00;96323.88;5030635;28;20449;-35
2023/12/11 01:11:06;;;;;;;0.70;0.30;;;8.50;99.90;;;7.79;100.00;96304.88;5028440;28;20415;-35
2023/12/11 01:13:32;;;;;;;0.70;0.32;;;8.50;99.90;;;7.86;100.00;96310.69;5025943;28;20033;-35
2023/12/11 01:15:58;;;;;;;1.98;0.50;;;8.50;99.90;;;7.89;100.00;96307.94;5025891;28;20047;-35
2023/12/11 01:18:25;;;;;;;2.75;0.32;;;8.50;99.90;;;7.85;100.00;96304.59;5025950;28;20036;-35
2023/12/11 01:20:51;;;;;;;1.75;0.20;;;8.50;99.90;;;7.86;100.00;96303.69;5024650;28;20062;-35
2023/12/11 01:23:17;;;;;;;0.22;0.22;;;8.50;99.90;;;7.86;100.00;96303.69;5026869;28;20044;-35
2023/12/11 01:25:43;;;;;;;0.20;0.20;;;8.50;99.90;;;7.88;100.00;96308.84;5025909;28;20280;-35
2023/12/11 01:28:09;;;;;;;2.00;0.20;;;8.50;99.90;;;7.88;100.00;96295.72;5034384;28;20032;-35
2023/12/11 01:30:35;;;;;;;1.42;0.30;;;8.50;99.90;;;7.86;100.00;96298.44;5031854;28;20116;-36
2023/12/11 01:33:03;;;;;;;0.30;0.30;;;8.50;99.90;;;7.87;100.00;96291.41;5050244;28;20537;-35
2023/12/11 01:35:29;;;;;;;0.93;0.30;;;8.50;99.90;;;7.80;100.00;96282.94;5030659;28;20115;-35
2023/12/11 01:37:54;;;;;;;0.35;0.30;;;8.50;99.90;;;7.89;100.00;96305.31;5027263;28;20495;-36
2023/12/11 01:40:20;;;;;;;0.28;0.20;;;8.50;99.90;;;7.88;100.00;96308.84;5029962;28;20021;-35
2023/12/11 01:42:46;;;;;;;0.30;0.30;;;8.50;99.90;;;7.91;100.00;96327.09;5023998;28;20535;-35
2023/12/11 01:45:12;;;;;;;0.55;0.20;;;8.50;99.90;;;7.93;100.00;96314.75;5026134;28;20688;-35
2023/12/11 01:47:38;;;;;;;0.45;0.30;;;8.60;99.90;;;7.91;100.00;96320.06;5025636;28;20188;-34
2023/12/11 01:50:07;;;;;;;1.83;0.40;;;8.60;99.90;;;7.90;100.00;96320.16;5027468;28;20044;-35
2023/12/11 01:52:32;;;;;;;2.08;0.40;;;8.50;99.90;;;7.90;100.00;96320.16;5033715;28;20036;-35
2023/12/11 01:54:58;;;;;;;0.30;0.30;;;8.50;99.90;;;7.89;100.00;96311.41;5032423;28;20032;-35
2023/12/11 01:57:24;;;;;;;0.60;0.25;;;8.50;99.90;;;7.90;100.00;96314.91;5034493;28;20120;-35
2023/12/11 01:59:49;;;;;;;0.40;0.30;;;8.50;99.90;;;7.90;100.00;96307.03;5032701;28;20095;-34
2023/12/11 02:02:19;;;;;;;0.65;0.22;;;8.50;99.90;;;7.83;100.00;96290.69;5033696;28;20477;-35
2023/12/11 02:04:46;;;;;;;0.30;0.30;;;8.50;99.90;;;7.89;100.00;96314.03;5030081;28;20037;-35
2023/12/11 02:07:11;;;;;;;0.88;0.30;;;8.50;99.90;;;7.91;100.00;96327.94;5030450;28;20059;-35
2023/12/11 02:09:37;;;;;;;0.88;0.20;;;8.50;99.90;;;7.94;100.00;96321.72;5032738;28;20021;-35
2023/12/11 02:12:03;;;;;;;0.73;0.17;;;8.50;99.90;;;7.93;100.00;96330.50;5033283;28;20500;-35
2023/12/11 02:14:29;;;;;;;0.80;0.20;;;8.60;99.90;;;7.83;100.00;96314.31;5036968;28;20120;-35
2023/12/11 02:16:55;;;;;;;0.20;0.20;;;8.50;99.90;;;7.89;100.00;96308.78;5030636;28;20048;-35
2023/12/11 02:19:20;;;;;;;0.63;0.30;;;8.50;99.90;;;7.89;100.00;96307.94;5032914;28;20032;-35
2023/12/11 02:21:46;;;;;;;0.85;0.30;;;8.50;99.90;;;7.89;100.00;96306.16;5028449;28;20056;-35
2023/12/11 02:24:18;;;;;;;0.55;0.30;;;8.50;99.90;;;7.89;100.00;96315.81;5034957;28;20105;-35
2023/12/11 02:26:44;;;;;;;0.47;0.30;;;8.50;99.90;;;7.90;100.00;96313.13;5033437;28;20349;-35
2023/12/11 02:29:10;;;;;;;0.75;0.40;;;8.50;99.90;;;7.91;100.00;96312.19;5033258;28;20135;-34
2023/12/11 02:31:35;;;;;;;2.00;0.22;;;8.50;99.90;;;7.94;100.00;96308.59;5031539;28;20482;-35
2023/12/11 02:34:01;;;;;;;0.35;0.15;;;8.50;99.90;;;7.96;100.00;96304.97;5035121;28;20066;-35
2023/12/11 02:36:27;;;;;;;0.70;0.13;;;8.60;99.90;;;7.99;100.00;96298.75;5033202;28;20033;-35
2023/12/11 02:38:52;;;;;;;0.28;0.20;;;8.60;99.90;;;7.99;100.00;96315.34;5029592;28;20033;-35
2023/12/11 02:41:18;;;;;;;0.10;0.10;;;8.60;99.90;;;8.01;100.00;96315.28;5036592;28;20865;-35
2023/12/11 02:43:44;;;;;;;0.63;0.10;;;8.60;99.90;;;8.01;100.00;96318.75;5037681;28;20037;-35
2023/12/11 02:46:10;;;;;;;0.40;0.17;;;8.60;99.90;;;8.00;100.00;96319.69;5036574;28;20115;-35
2023/12/11 02:48:35;;;;;;;0.20;0.15;;;8.60;99.90;;;7.98;100.00;96312.78;5037980;28;20033;-34
2023/12/11 02:51:01;;;;;;;0.35;0.20;;;8.60;99.90;;;7.98;100.00;96313.63;5032793;28;20033;-34
2023/12/11 02:53:27;;;;;;;0.25;0.10;;;8.60;99.90;;;7.99;100.00;96315.34;5036043;28;20033;-35
2023/12/11 02:55:52;;;;;;;0.10;0.10;;;8.60;99.90;;;8.01;100.00;96310.03;5031755;28;20485;-35
2023/12/11 02:58:18;;;;;;;0.32;0.10;;;8.60;99.90;;;7.99;100.00;96320.59;5034067;28;20067;-35
2023/12/11 03:00:44;;;;;;;2.50;0.30;;;8.60;99.90;;;8.00;100.00;96318.81;5027764;28;20047;-35
2023/12/11 03:03:09;;;;;;;1.05;0.20;;;8.60;99.90;;;7.90;100.00;96296.53;5038666;28;21278;-35
2023/12/11 03:05:35;;;;;;;2.13;0.20;;;8.60;99.90;;;8.02;100.00;96304.72;5035480;28;20025;-34
2023/12/11 03:08:05;;;;;;;0.35;0.20;;;8.60;99.90;;;8.00;100.00;96305.69;5010989;28;20500;-34
2023/12/11 03:10:34;;;;;;;1.02;0.20;;;8.60;99.90;;;7.95;100.00;96289.28;5031796;28;20017;-35
2023/12/11 03:13:00;;;;;;;2.30;0.20;;;8.60;99.90;;;7.99;100.00;96296.97;5030651;28;20068;-35
2023/12/11 03:15:26;;;;;;;0.10;0.10;;;8.60;99.90;;;7.99;100.00;96301.38;5035397;28;20120;-35
2023/12/11 03:17:51;;;;;;;0.13;0.10;;;8.60;99.90;;;7.97;100.00;96301.44;5033883;28;20025;-35
2023/12/11 03:20:17;;;;;;;0.50;0.20;;;8.60;99.90;;;7.91;100.00;96293.81;5033729;28;20036;-35
2023/12/11 03:22:44;;;;;;;0.47;0.20;;;8.50;99.90;;;7.94;100.00;96311.22;5034880;28;20037;-35
2023/12/11 03:25:09;;;;;;;0.52;0.20;;;8.50;99.90;;;7.86;100.00;96295.81;5032478;28;20123;-35
2023/12/11 03:27:35;;;;;;;0.10;0.10;;;8.50;99.90;;;7.91;100.00;96304.31;5036442;28;20397;-35
2023/12/11 03:30:01;;;;;;;0.10;0.10;;;8.50;99.90;;;7.88;100.00;96286.09;5031852;28;20034;-35
2023/12/11 03:32:27;;;;;;;0.20;0.20;;;8.50;99.90;;;7.89;100.00;96286.94;5033897;28;20021;-35
2023/12/11 03:34:52;;;;;;;0.20;0.20;;;8.50;99.90;;;7.88;100.00;96283.47;5033062;28;20075;-35
2023/12/11 03:37:18;;;;;;;1.15;0.25;;;8.50;99.90;;;7.87;100.00;96294.03;5014196;28;20029;-35
2023/12/11 03:39:44;;;;;;;2.88;0.20;;;8.50;99.90;;;7.80;100.00;96281.16;5030900;28;20041;-35
2023/12/11 03:42:09;;;;;;;0.20;0.20;;;8.50;99.90;;;7.87;100.00;96294.88;5033934;28;20037;-35
2023/12/11 03:44:35;;;;;;;0.20;0.20;;;8.50;99.90;;;7.86;100.00;96295.81;5037471;28;20037;-35
2023/12/11 03:47:01;;;;;;;0.57;0.25;;;8.50;99.90;;;7.84;100.00;96284.50;5032957;28;20570;-35
2023/12/11 03:49:27;;;;;;;0.20;0.20;;;8.50;99.90;;;7.81;100.00;96280.25;5034207;28;20022;-35
2023/12/11 03:51:53;;;;;;;0.28;0.20;;;8.50;99.90;;;7.71;100.00;96262.34;5037656;28;20033;-36
2023/12/11 03:54:19;;;;;;;0.30;0.20;;;8.40;99.90;;;7.81;100.00;96282.88;5031678;28;20044;-36
2023/12/11 03:56:45;;;;;;;0.40;0.30;;;8.40;99.90;;;7.81;100.00;96274.16;5033488;28;20107;-36
2023/12/11 03:59:11;;;;;;;0.40;0.28;;;8.40;99.90;;;7.82;100.00;96267.97;5033671;28;20363;-36
2023/12/11 04:01:37;;;;;;;0.20;0.17;;;8.40;99.90;;;7.83;100.00;96267.91;5034386;28;20502;-36
2023/12/11 04:04:03;;;;;;;0.47;0.20;;;8.50;99.90;;;7.80;100.00;96256.69;5033381;28;20449;-36
2023/12/11 04:06:29;;;;;;;0.45;0.28;;;8.40;99.90;;;7.87;100.00;96257.28;5025354;28;20341;-36
2023/12/11 04:08:55;;;;;;;0.70;0.30;;;8.50;99.90;;;7.82;100.00;96242.59;5030185;28;20040;-36
2023/12/11 04:11:20;;;;;;;0.70;0.30;;;8.40;99.90;;;7.69;100.00;96243.19;5031776;28;20424;-36
2023/12/11 04:13:46;;;;;;;0.20;0.20;;;8.30;99.90;;;7.53;100.00;96235.97;5035222;28;20033;-36
2023/12/11 04:16:12;;;;;;;0.73;0.20;;;8.20;99.90;;;7.40;100.00;96227.78;5032983;28;20037;-36
2023/12/11 04:18:38;;;;;;;0.40;0.22;;;8.00;99.90;;;7.26;100.00;96236.25;5032308;28;20133;-36
2023/12/11 04:21:05;;;;;;;0.30;0.15;;;7.90;99.90;;;7.20;100.00;96236.50;5031514;28;20047;-36
2023/12/11 04:23:30;;;;;;;0.32;0.30;;;7.90;99.90;;;7.21;100.00;96256.59;5033572;28;20036;-36
2023/12/11 04:25:59;;;;;;;0.10;0.10;;;7.90;99.90;;;7.29;100.00;96251.00;5034907;28;20071;-36
2023/12/11 04:28:26;;;;;;;0.68;0.20;;;7.90;99.90;;;7.37;100.00;96256.75;5032557;28;20037;-36
2023/12/11 04:30:51;;;;;;;2.20;0.20;;;8.00;99.90;;;7.41;100.00;96265.34;5031460;28;20116;-36
2023/12/11 04:33:17;;;;;;;0.20;0.10;;;8.00;99.90;;;7.38;100.00;96262.88;5034584;28;20037;-36
2023/12/11 04:35:44;;;;;;;0.50;0.30;;;8.00;99.90;;;7.35;100.00;96265.63;5034504;28;20031;-36
2023/12/11 04:38:09;;;;;;;1.25;0.30;;;8.00;99.90;;;7.36;100.00;96277.84;5031189;28;20264;-36
2023/12/11 04:40:35;;;;;;;0.20;0.20;;;8.00;99.90;;;7.28;100.00;96272.91;5033626;28;20075;-36
2023/12/11 04:43:01;;;;;;;0.10;0.10;;;7.90;99.90;;;7.14;100.00;96270.00;5034362;28;20037;-36
2023/12/11 04:45:27;;;;;;;0.20;0.20;;;7.80;99.90;;;7.14;100.00;96268.25;5031889;28;20064;-36
2023/12/11 04:47:52;;;;;;;0.38;0.10;;;7.70;99.90;;;7.12;100.00;96274.44;5032827;28;20492;-36
2023/12/11 04:50:18;;;;;;;0.30;0.30;;;7.70;99.90;;;7.10;100.00;96271.03;5033664;28;20025;-36
2023/12/11 04:52:44;;;;;;;0.30;0.30;;;7.70;99.90;;;7.08;100.00;96266.69;5035285;28;20520;-36
2023/12/11 04:55:09;;;;;;;0.20;0.20;;;7.70;99.90;;;7.05;100.00;96255.50;5031335;28;20029;-36
2023/12/11 04:57:35;;;;;;;0.70;0.20;;;7.60;99.90;;;6.98;100.00;96246.19;5030746;28;20396;-36
2023/12/11 05:00:01;;;;;;;1.15;0.20;;;7.60;99.90;;;6.95;100.00;96255.03;5034028;28;20130;-36
2023/12/11 05:02:26;;;;;;;1.00;0.28;;;7.50;99.90;;;6.90;100.00;96253.50;5036967;28;20060;-36
2023/12/11 05:04:52;;;;;;;2.97;0.30;;;7.50;99.90;;;6.83;100.00;96247.66;5034686;28;20516;-36
2023/12/11 05:07:18;;;;;;;0.45;0.22;;;7.40;99.90;;;6.77;100.00;96255.78;5033778;28;20033;-36
2023/12/11 05:09:43;;;;;;;0.20;0.10;;;7.40;99.90;;;6.73;100.00;96255.06;5029276;28;20148;-36
2023/12/11 05:12:09;;;;;;;0.75;0.40;;;7.30;99.90;;;6.69;100.00;96246.47;5032029;28;20482;-36
2023/12/11 05:14:35;;;;;;;0.43;0.20;;;7.30;99.90;;;6.56;100.00;96221.66;5034600;28;20047;-36
2023/12/11 05:17:00;;;;;;;0.30;0.30;;;7.30;99.90;;;6.65;100.00;96242.22;5026588;28;20308;-36
2023/12/11 05:19:26;;;;;;;0.38;0.20;;;7.20;99.90;;;6.58;100.00;96258.25;5030230;28;20033;-36
2023/12/11 05:21:52;;;;;;;0.98;0.20;;;7.20;99.90;;;6.49;100.00;96262.94;5029249;28;20527;-36
2023/12/11 05:24:17;;;;;;;0.43;0.30;;;7.20;99.90;;;6.50;100.00;96263.81;5028701;28;20037;-36
2023/12/11 05:26:43;;;;;;;0.73;0.40;;;7.10;99.90;;;6.50;100.00;96258.56;5033089;28;20028;-36
2023/12/11 05:29:09;;;;;;;0.47;0.22;;;7.10;99.90;;;6.45;100.00;96237.78;5028858;28;20034;-36
2023/12/11 05:31:35;;;;;;;0.30;0.28;;;7.10;99.90;;;6.46;100.00;96238.63;5030186;28;20458;-36
2023/12/11 05:34:00;;;;;;;0.35;0.10;;;7.10;99.90;;;6.44;100.00;96246.56;5032492;28;20044;-36
2023/12/11 05:36:26;;;;;;;0.20;0.20;;;7.10;99.90;;;6.41;100.00;96228.34;5029048;28;20029;-36
2023/12/11 05:38:52;;;;;;;1.35;0.30;;;7.10;99.90;;;6.37;100.00;96224.16;5032514;28;20044;-36
2023/12/11 05:41:18;;;;;;;0.20;0.20;;;7.00;99.90;;;6.35;100.00;96222.50;5028718;28;20044;-36
2023/12/11 05:43:43;;;;;;;0.28;0.20;;;7.00;99.90;;;6.31;100.00;96203.44;5033721;28;20037;-36
2023/12/11 05:46:11;;;;;;;2.03;0.40;;;6.90;99.90;;;6.27;100.00;96180.91;5029165;28;20018;-36
2023/12/11 05:48:37;;;;;;;0.32;0.20;;;7.00;99.90;;;6.30;100.00;96173.78;5034194;28;20033;-36
2023/12/11 05:51:03;;;;;;;0.90;0.25;;;6.90;99.90;;;6.30;100.00;96173.78;5030341;28;20425;-36
2023/12/11 05:53:28;;;;;;;1.80;0.30;;;6.90;99.90;;;6.32;100.00;96189.44;5032949;28;20506;-36
2023/12/11 05:55:54;;;;;;;0.20;0.20;;;7.00;99.90;;;6.37;100.00;96213.69;5033446;28;20489;-36
2023/12/11 05:58:20;;;;;;;1.42;0.50;;;7.00;99.90;;;6.42;100.00;96224.81;5028259;28;20120;-36
2023/12/11 06:00:45;;;;;;;0.47;0.30;;;7.00;99.90;;;6.43;100.00;96238.78;5029140;28;20052;-36
2023/12/11 06:03:11;;;;;;;1.38;0.30;;;7.00;99.90;;;6.43;100.00;96229.16;5027751;28;20036;-36
2023/12/11 06:05:37;;;;;;;1.98;0.50;;;7.00;99.90;;;6.30;100.00;96223.53;5031140;28;20072;-36
2023/12/11 06:08:04;;;;;;;0.85;0.50;;;7.00;99.90;;;6.34;100.00;96239.13;5030647;28;20070;-36
2023/12/11 06:10:29;;;;;;;1.40;0.57;;;7.00;99.90;;;6.32;100.00;96223.47;5028017;28;20055;-34
2023/12/11 06:12:55;;;;;;;0.73;0.30;;;7.00;99.90;;;6.29;100.00;96205.25;5027128;28;20440;-34
2023/12/11 06:15:21;;;;;;;1.02;0.50;;;7.00;99.90;;;6.28;100.00;96214.03;5023126;28;20030;-35
2023/12/11 06:17:47;;;;;;;1.40;0.40;;;6.90;99.90;;;6.30;100.00;96210.44;5032259;28;20042;-35
2023/12/11 06:20:13;;;;;;;1.33;0.60;;;7.00;99.90;;;6.29;100.00;96181.69;5028640;28;20033;-35
2023/12/11 06:22:39;;;;;;;2.13;0.52;;;7.00;99.90;;;6.44;100.00;96199.44;5029286;28;20103;-35
2023/12/11 06:25:05;;;;;;;0.50;0.40;;;7.10;99.90;;;6.49;100.00;96209.72;5030113;28;20065;-35
2023/12/11 06:27:30;;;;;;;1.30;0.50;;;7.10;99.90;;;6.51;100.00;96226.22;5028148;28;20030;-35
2023/12/11 06:29:56;;;;;;;0.73;0.25;;;7.10;99.90;;;6.56;100.00;96229.50;5033791;28;20032;-35
2023/12/11 06:32:22;;;;;;;1.10;0.35;;;7.10;99.90;;;6.54;100.00;96233.97;5028169;28;20727;-35
2023/12/11 06:34:47;;;;;;;1.90;0.40;;;7.20;99.90;;;6.55;100.00;96221.72;5028675;28;20063;-36
2023/12/11 06:37:14;;;;;;;0.93;0.43;;;7.20;99.90;;;6.59;100.00;96220.69;5025082;28;20037;-36
2023/12/11 06:39:39;;;;;;;0.40;0.30;;;7.20;99.90;;;6.48;100.00;96206.25;5030585;28;20037;-35
2023/12/11 06:42:05;;;;;;;0.50;0.28;;;7.20;99.90;;;6.58;100.00;96206.72;5025907;28;20032;-35
2023/12/11 06:44:31;;;;;;;0.32;0.32;;;7.20;99.90;;;6.58;100.00;96200.63;5029569;28;20455;-35
2023/12/11 06:46:57;;;;;;;2.25;0.55;;;7.20;99.90;;;6.57;100.00;96181.47;5027590;28;20317;-36
2023/12/11 06:49:22;;;;;;;2.42;0.52;;;7.20;99.90;;;6.60;100.00;96175.22;5028131;28;20028;-35
2023/12/11 06:51:49;;;;;;;0.60;0.50;;;7.20;99.90;;;6.55;100.00;96178.06;5031019;28;20526;-35
2023/12/11 06:54:15;;;;;;;0.63;0.43;;;7.20;99.90;;;6.60;100.00;96198.81;5029803;28;20045;-35
2023/12/11 06:56:41;;;;;;;1.05;0.63;;;7.20;99.90;;;6.58;100.00;96200.63;5023714;28;20037;-35
2023/12/11 06:59:07;;;;;;;1.05;0.47;;;7.20;99.90;;;6.51;100.00;96205.25;5030015;28;20040;-35
2023/12/11 07:01:34;;;;;;;0.98;0.40;;;7.20;99.90;;;6.60;100.00;96215.38;5025369;28;20052;-35
2023/12/11 07:04:01;;;;;;;2.85;0.50;;;7.20;99.90;;;6.61;100.00;96203.16;5028390;28;20110;-35
2023/12/11 07:06:26;;;;;;;1.55;0.50;;;7.20;99.90;;;6.60;100.00;96199.66;5026383;28;20049;-36
2023/12/11 07:08:52;;;;;;;0.77;0.50;;;7.20;99.90;;;6.59;100.00;96189.25;5030303;28;20444;-35
2023/12/11 07:11:19;;;;;;;0.32;0.30;;;7.20;99.90;;;6.49;100.00;96173.03;5027111;28;20675;-35
2023/12/11 07:13:45;;;;;;;0.75;0.40;;;7.20;99.90;;;6.58;100.00;96183.16;5030024;28;20400;-35
2023/12/11 07:16:11;;;;;;;0.65;0.40;;;7.20;99.90;;;6.57;100.00;96181.47;5022884;28;20634;-35
2023/12/11 07:18:38;;;;;;;0.63;0.40;;;7.20;99.90;;;6.62;100.00;96182.13;5032018;28;20612;-35
2023/12/11 07:21:11;;;;;;;0.60;0.32;;;7.20;99.90;;;6.67;100.00;96179.31;5025192;28;20401;-35
2023/12/11 07:23:37;;;;;;;0.68;0.50;;;7.30;99.90;;;6.72;100.00;96173.88;5027802;28;20098;-35
2023/12/11 07:26:07;;;;;;;0.88;0.50;;;7.30;99.90;;;6.71;100.00;96173.00;5025966;28;20033;-35
2023/12/11 07:28:33;;;;;;;0.55;0.30;;;7.40;99.90;;;6.82;100.00;96172.56;5031278;28;20033;-35
2023/12/11 07:31:00;;;;;;;1.70;0.60;;;7.40;99.90;;;6.81;100.00;96158.63;5028881;28;20036;-35
2023/12/11 07:33:26;;;;;;;1.00;0.57;;;7.50;99.90;;;6.91;100.00;96179.19;5030143;28;20687;-35
2023/12/11 07:35:52;;;;;;;4.50;0.80;;;7.50;99.90;;;6.99;100.00;96171.88;5033228;28;20033;-35
2023/12/11 07:38:17;;;;;;;0.82;0.50;;;7.60;99.90;;;7.03;100.00;96161.22;5017980;28;20102;-35
2023/12/11 07:40:44;;;;;;;2.65;0.55;;;7.60;99.90;;;7.12;100.00;96159.94;5035997;28;20440;-35
2023/12/11 07:43:10;;;;;;;1.92;0.50;;;7.70;99.90;;;7.17;100.00;96157.97;5027582;28;20501;-34
2023/12/11 07:45:35;;;;;;;1.13;0.55;;;7.80;99.90;;;7.21;100.00;96153.44;5029466;28;20412;-35
2023/12/11 07:48:01;;;;;;;0.43;0.40;;;7.80;99.90;;;7.22;100.00;96144.69;5031539;28;20324;-35
2023/12/11 07:50:27;;;;;;;1.13;0.40;;;7.90;99.90;;;7.30;100.00;96152.19;5021476;28;20035;-35
2023/12/11 07:52:52;;;;;;;1.65;0.60;;;7.90;99.90;;;7.32;100.00;96146.00;5025667;28;20036;-35
2023/12/11 07:55:18;;;;;;;1.45;0.60;;;7.90;99.90;;;7.30;100.00;96139.94;5025033;28;20032;-35
2023/12/11 07:57:44;;;;;;;1.45;0.50;;;8.00;99.90;;;7.42;100.00;96157.75;5024677;28;20141;-34
2023/12/11 08:00:10;;;;;;;0.60;0.38;;;8.00;99.90;;;7.47;100.00;96165.44;5025622;28;20041;-35
2023/12/11 08:02:37;;;;;;;1.50;0.60;;;8.10;99.90;;;7.49;100.00;96165.38;5031436;28;20350;-35
2023/12/11 08:05:03;;;;;;;0.88;0.50;;;8.10;99.90;;;7.47;100.00;96168.06;5033952;28;20041;-35
2023/12/11 08:07:29;;;;;;;2.70;0.52;;;8.10;99.90;;;7.48;100.00;96179.38;5031996;28;20040;-35
2023/12/11 08:09:55;;;;;;;1.08;0.45;;;8.10;99.90;;;7.56;100.00;96191.25;5023955;28;20147;-35
2023/12/11 08:12:20;;;;;;;1.65;0.50;;;8.10;99.90;;;7.69;100.00;96190.72;5032210;28;20123;-35
2023/12/11 08:14:46;;;;;;;1.50;0.43;;;8.20;99.90;;;7.85;100.00;96181.22;5031194;28;20044;-35
2023/12/11 08:17:12;;;;;;;2.92;0.88;;;8.40;99.90;;;8.01;100.00;96195.34;5032769;28;20497;-35
2023/12/11 08:19:38;;;;;;;1.55;0.55;;;8.60;99.90;;;8.09;100.00;96188.88;5034155;28;20087;-35
2023/12/11 08:22:04;;;;;;;0.80;0.38;;;8.70;99.90;;;8.25;100.00;96203.00;5029817;28;20064;-35
2023/12/11 08:24:30;;;;;;;0.50;0.32;;;8.80;99.90;;;8.36;100.00;96208.63;5027492;28;20078;-35
2023/12/11 08:26:56;;;;;;;0.88;0.40;;;8.90;99.90;;;8.44;100.00;96197.78;5031026;28;20033;-35
2023/12/11 08:29:22;;;;;;;1.40;0.47;;;9.00;99.90;;;8.55;100.00;96192.00;5035034;28;20025;-36
2023/12/11 08:31:48;;;;;;;0.57;0.50;;;9.10;99.90;;;8.62;100.00;96197.81;5028757;28;20025;-36
2023/12/11 08:34:13;;;;;;;3.85;0.80;;;9.20;99.90;;;8.65;100.00;96193.28;5031637;28;20455;-35
2023/12/11 08:36:40;;;;;;;1.52;0.40;;;9.30;99.90;;;8.69;100.00;96194.81;5026013;28;20060;-36
2023/12/11 08:39:06;;;;;;;3.78;0.80;;;9.20;99.90;;;8.73;100.00;96187.63;5024072;28;20033;-35
2023/12/11 08:41:33;;;;;;;1.48;0.52;;;9.30;99.90;;;8.80;100.00;96183.78;5026479;28;20028;-35
2023/12/11 08:43:59;;;;;;;0.73;0.40;;;9.30;99.90;;;8.81;100.00;96172.34;5029432;28;20044;-35
2023/12/11 08:46:25;;;;;;;1.27;0.43;;;9.40;99.90;;;8.94;100.00;96183.94;5028206;28;20413;-35
2023/12/11 08:48:50;;;;;;;2.45;0.50;;;9.40;99.90;;;8.93;100.00;96197.16;5029328;28;20534;-35
2023/12/11 08:51:19;;;;;;;2.72;0.50;;;9.40;99.90;;;8.94;100.00;96194.47;5025177;28;20052;-36
2023/12/11 08:53:45;;;;;;;1.83;0.43;;;9.40;99.90;;;8.89;100.00;96199.09;5017950;28;20083;-36
2023/12/11 08:56:13;;;;;;;0.82;0.35;;;9.40;99.90;;;8.87;100.00;96187.81;5033334;28;20025;-35
2023/12/11 08:58:39;;;;;;;2.28;0.45;;;9.40;99.90;;;8.79;100.00;96175.06;5031232;28;20052;-35
2023/12/11 09:01:05;;;;;;;6.30;3.00;;;9.40;99.90;;;8.89;100.00;96214.03;5030018;28;20061;-35
2023/12/11 09:03:31;;;;;;;2.40;1.35;;;9.40;99.90;;;8.76;100.00;96219.88;5032978;28;20037;-35
2023/12/11 09:05:56;;;;;;;0.93;0.35;;;9.40;99.90;;;8.73;100.00;96206.88;5031494;28;20099;-35
2023/12/11 09:08:22;;;;;;;0.82;0.40;;;9.40;99.90;;;8.84;100.00;96206.34;5045338;28;20033;-35
2023/12/11 09:10:48;;;;;;;2.63;0.50;;;9.40;99.90;;;9.02;100.00;96214.28;5029619;28;20036;-35
2023/12/11 09:13:13;;;;;;;2.90;0.52;;;9.50;99.90;;;9.18;100.00;96213.41;5029249;28;20020;-36
2023/12/11 09:15:39;;;;;;;1.77;0.30;;;9.70;99.90;;;9.30;100.00;96211.13;5034105;28;20319;-35
2023/12/11 09:18:06;;;;;;;1.75;0.50;;;9.90;99.90;;;9.44;100.00;96221.78;5031622;28;20489;-35
2023/12/11 09:20:32;;;;;;;2.92;0.60;;;10.00;99.90;;;9.54;100.00;96212.47;5028106;28;20213;-35
2023/12/11 09:22:57;;;;;;;1.10;0.35;;;10.10;99.90;;;9.60;100.00;96205.19;5025970;28;20365;-35
2023/12/11 09:25:23;;;;;;;5.35;1.70;;;10.20;99.90;;;9.63;100.00;96229.56;5028785;28;20107;-36
2023/12/11 09:27:49;;;;;;;3.80;0.90;;;10.20;99.90;;;9.65;100.00;96240.00;5029848;28;20044;-35
2023/12/11 09:30:15;;;;;;;2.60;0.40;;;10.20;99.90;;;9.57;100.00;96224.63;5031264;28;20512;-34
2023/12/11 09:32:40;;;;;;;1.75;0.45;;;10.30;99.90;;;9.63;100.00;96221.66;5024418;28;20091;-34
2023/12/11 09:35:07;;;;;;;0.95;0.30;;;10.20;99.90;;;9.71;100.00;96242.34;5030918;28;20599;-34
2023/12/11 09:37:33;;;;;;;1.30;0.40;;;10.30;99.90;;;9.72;100.00;96226.44;5028055;28;20360;-35
2023/12/11 09:39:59;;;;;;;1.83;0.50;;;10.30;99.90;;;9.79;100.00;96239.31;5026973;28;20060;-35
2023/12/11 09:42:26;;;;;;;0.63;0.28;;;10.30;99.90;;;9.73;100.00;96246.59;5028428;28;20037;-35
2023/12/11 09:44:52;;;;;;;0.63;0.35;;;10.30;99.90;;;9.73;100.00;96227.31;5045450;28;21363;-35
2023/12/11 09:47:29;;;;;;;3.10;0.40;;;10.30;99.90;;;9.78;100.00;96221.78;5028755;28;20123;-36
2023/12/11 09:49:55;;;;;;;1.60;0.47;;;10.40;99.90;;;9.87;100.00;96221.31;5027665;28;20076;-34
2023/12/11 09:52:24;;;;;;;1.90;0.50;;;10.40;99.90;;;9.92;100.00;96217.53;5030753;28;20036;-34
2023/12/11 09:54:50;;;;;;;1.65;0.30;;;10.50;99.90;;;10.04;100.00;96226.53;5026699;28;20033;-34
2023/12/11 09:57:16;;;;;;;2.22;0.40;;;10.60;99.90;;;10.07;100.00;96225.53;5027819;28;20138;-35
2023/12/11 09:59:43;;;;;;;3.38;0.90;;;10.60;99.90;;;10.21;100.00;96208.97;5027351;28;20025;-36
2023/12/11 10:02:15;;;;;;;1.50;0.60;;;10.80;99.90;;;10.26;100.00;96204.28;5026131;28;20318;-35
2023/12/11 10:05:08;;;;;;;2.20;0.50;;;10.80;99.90;;;10.30;100.00;96211.09;5043493;28;20113;-35
2023/12/11 10:07:35;;;;;;;2.80;0.98;;;10.80;99.90;;;10.34;100.00;96219.72;5027693;28;20254;-36
2023/12/11 10:10:27;;;;;;;1.73;0.70;;;10.90;99.90;;;10.41;100.00;96232.50;5027976;28;20037;-36
2023/12/11 10:12:57;;;;;;;3.87;0.70;;;11.00;99.90;;;10.39;100.00;96208.00;5027399;28;20130;-36
2023/12/11 10:15:27;;;;;;;1.42;0.40;;;11.00;99.90;;;10.49;100.00;96214.44;5028447;28;20112;-36
2023/12/11 10:18:02;;;;;;;4.40;0.65;;;11.00;99.90;;;10.59;100.00;96208.69;5026034;28;20563;-35
2023/12/11 10:20:28;;;;;;;1.00;0.47;;;11.10;99.90;;;10.53;100.00;96215.13;5027920;28;20037;-35